KEFD/EFD METAR and TAF weather

Enter ICAO airport designator
Station Type Date Time Source
KEFD METAR 2018/07/19 05:50 UTC NOAA

KEFD 190550Z 19006KT 10SM FEW250 27/24 A2996


Station Type Date Time Source
KEFD Decoded METAR 2018/07/19 05:50 UTC NOAA

Houston / Ellington, TX, United States (KEFD) 29-36N 095-10W
Jul 19, 2018 - 01:50 AM EDT / 2018.07.19 0550 UTC
Wind: from the S (190 degrees) at 7 MPH (6 KT):0
Visibility: 10 mile(s):0
Sky conditions: mostly clear
Temperature: 80 F (27 C)
Dew Point: 75 F (24 C)
Relative Humidity: 83%
Pressure (altimeter): 29.96 in. Hg (1014 hPa)
ob: KEFD 190550Z 19006KT 10SM FEW250 27/24 A2996
cycle: 6

Station Type Date Time Source
KEFD TAF 2018/07/18 20:03 UTC NOAA

TAF KEFD 182000Z 1820/2002 18012KT 9999 SCT060 QNH2993INS
BECMG 1908/1909 22006KT 9999 BKN010 BKN060 QNH2994INS
BECMG 1915/1916 20010G15KT 9999 SCT070 QNH2991INS TX36/1820Z TN24/1911Z


Example: see airport list